createdAt,value
2018-02-21T00:00:00.458Z,-2.30
2018-02-21T00:02:30.932Z,-2.30
2018-02-21T00:04:57.227Z,-2.30
2018-02-21T00:07:23.502Z,-2.40
2018-02-21T00:09:50.524Z,-2.60
2018-02-21T00:12:19.828Z,-2.60
2018-02-21T00:14:46.857Z,-2.70
2018-02-21T00:17:13.129Z,-2.70
2018-02-21T00:19:39.400Z,-2.80
2018-02-21T00:22:11.810Z,-2.60
2018-02-21T00:24:38.072Z,-2.60
2018-02-21T00:27:05.064Z,-2.80
2018-02-21T00:29:31.424Z,-2.80
2018-02-21T00:31:57.676Z,-2.90
2018-02-21T00:34:23.946Z,-2.90
2018-02-21T00:36:50.266Z,-3.00
2018-02-21T00:39:17.458Z,-3.10
2018-02-21T00:41:44.608Z,-3.10
2018-02-21T00:44:11.151Z,-3.20
2018-02-21T00:46:37.423Z,-3.20
2018-02-21T00:49:04.471Z,-3.40
2018-02-21T00:51:31.507Z,-3.40
2018-02-21T00:53:57.834Z,-3.40
2018-02-21T00:56:24.053Z,-3.50
2018-02-21T00:58:50.341Z,-3.50
2018-02-21T01:01:16.590Z,-3.50
2018-02-21T01:03:42.910Z,-3.50
2018-02-21T01:06:09.195Z,-3.50
2018-02-21T01:08:36.193Z,-3.50
2018-02-21T01:11:04.654Z,-3.50
2018-02-21T01:13:31.669Z,-3.70
2018-02-21T01:15:57.914Z,-3.70
2018-02-21T01:18:24.226Z,-3.80
2018-02-21T01:20:50.497Z,-3.80
2018-02-21T01:23:25.543Z,-3.90
2018-02-21T01:25:52.437Z,-3.90
2018-02-21T01:28:20.462Z,-3.90
2018-02-21T01:30:46.826Z,-3.90
2018-02-21T01:33:13.086Z,-3.90
2018-02-21T01:35:39.360Z,-3.90
2018-02-21T01:38:05.620Z,-3.90
2018-02-21T01:40:31.873Z,-3.90
2018-02-21T01:42:58.080Z,-3.90
2018-02-21T01:45:24.401Z,-3.90
2018-02-21T01:47:50.719Z,-3.90
2018-02-21T01:50:16.956Z,-3.90
2018-02-21T01:52:43.230Z,-4.10
2018-02-21T01:55:09.460Z,-4.20
2018-02-21T01:57:35.729Z,-4.30
2018-02-21T02:00:02.058Z,-4.30
2018-02-21T02:02:29.028Z,-4.40
2018-02-21T02:04:56.048Z,-4.40
2018-02-21T02:07:22.285Z,-4.50
2018-02-21T02:09:48.545Z,-4.50
2018-02-21T02:12:14.818Z,-4.60
2018-02-21T02:14:41.078Z,-4.50
2018-02-21T02:17:07.330Z,-4.60
2018-02-21T02:19:33.598Z,-4.60
2018-02-21T02:21:59.910Z,-4.60
2018-02-21T02:24:26.168Z,-4.40
2018-02-21T02:26:53.195Z,-4.00
2018-02-21T02:29:19.444Z,-4.00
2018-02-21T02:31:45.712Z,-3.80
2018-02-21T02:34:11.968Z,-3.80
2018-02-21T02:36:38.335Z,-3.90
2018-02-21T02:39:17.796Z,-4.10
2018-02-21T02:41:44.782Z,-4.20
2018-02-21T02:44:11.006Z,-4.20
2018-02-21T02:46:37.272Z,-4.20
2018-02-21T02:49:03.517Z,-4.20
2018-02-21T02:51:29.805Z,-4.00
2018-02-21T02:53:59.617Z,-3.80
2018-02-21T02:56:25.893Z,-3.60
2018-02-21T02:58:52.177Z,-3.30
2018-02-21T03:01:19.128Z,-3.30
2018-02-21T03:03:45.343Z,-3.30
2018-02-21T03:06:11.553Z,-3.20
2018-02-21T03:08:38.558Z,-2.90
2018-02-21T03:11:05.900Z,-3.00
2018-02-21T03:13:32.160Z,-2.30
2018-02-21T03:15:58.470Z,-2.10
2018-02-21T03:18:25.485Z,-2.20
2018-02-21T03:20:51.776Z,-2.30
2018-02-21T03:23:18.014Z,-2.30
2018-02-21T03:25:45.035Z,-2.10
2018-02-21T03:28:11.327Z,-2.10
2018-02-21T03:30:38.297Z,-2.00
2018-02-21T03:33:04.544Z,-2.00
2018-02-21T03:35:30.845Z,-2.20
2018-02-21T03:37:57.063Z,-2.30
2018-02-21T03:40:23.303Z,-2.30
2018-02-21T03:42:49.568Z,-2.30
2018-02-21T03:45:15.828Z,-2.30
2018-02-21T03:47:42.839Z,-2.10
2018-02-21T03:50:09.067Z,-2.10
2018-02-21T03:52:35.311Z,-2.00
2018-02-21T03:55:01.568Z,-1.90
2018-02-21T03:57:27.844Z,-1.80
2018-02-21T03:59:54.946Z,-2.10
2018-02-21T04:02:21.200Z,-2.10
2018-02-21T04:04:47.468Z,-2.10
2018-02-21T04:07:13.725Z,-1.90
2018-02-21T04:09:40.778Z,-1.80
2018-02-21T04:12:07.038Z,-1.80
2018-02-21T04:14:33.339Z,-1.50
2018-02-21T04:16:59.561Z,-1.80
2018-02-21T04:19:25.820Z,-2.00
2018-02-21T04:21:52.061Z,-2.10
2018-02-21T04:24:18.389Z,-1.80
2018-02-21T04:26:44.636Z,-1.90
2018-02-21T04:29:10.884Z,-2.00
2018-02-21T04:31:37.278Z,-1.80
2018-02-21T04:34:03.551Z,-2.00
2018-02-21T04:36:29.779Z,-1.80
2018-02-21T04:38:56.035Z,-1.90
2018-02-21T04:41:22.370Z,-2.20
2018-02-21T04:43:48.654Z,-2.10
2018-02-21T04:46:14.886Z,-2.00
2018-02-21T04:48:41.189Z,-2.10
2018-02-21T04:51:07.603Z,-2.20
2018-02-21T04:53:34.652Z,-2.30
2018-02-21T04:56:06.957Z,-2.40
2018-02-21T04:58:44.862Z,-2.20
2018-02-21T05:01:11.167Z,-2.20
2018-02-21T05:03:37.482Z,-2.20
2018-02-21T05:06:03.700Z,-2.40
2018-02-21T05:08:30.685Z,-2.30
2018-02-21T05:10:56.925Z,-2.30
2018-02-21T05:13:23.209Z,-2.30
2018-02-21T05:15:49.456Z,-2.10
2018-02-21T05:18:15.800Z,-1.90
2018-02-21T05:20:42.082Z,-2.20
2018-02-21T05:23:08.382Z,-2.30
2018-02-21T05:25:34.648Z,-2.50
2018-02-21T05:28:01.642Z,-2.20
2018-02-21T05:30:27.929Z,-2.20
2018-02-21T05:32:54.199Z,-2.00
2018-02-21T05:35:20.478Z,-2.10
2018-02-21T05:37:47.484Z,-1.70
2018-02-21T05:40:14.498Z,-1.70
2018-02-21T05:42:40.762Z,-1.70
2018-02-21T05:45:07.075Z,-1.80
2018-02-21T05:47:33.340Z,-1.90
2018-02-21T05:49:59.579Z,-2.00
2018-02-21T05:52:25.877Z,-2.10
2018-02-21T05:54:52.428Z,-2.00
2018-02-21T05:57:18.708Z,-2.20
2018-02-21T06:00:00.741Z,-2.10
2018-02-21T06:02:27.057Z,-2.10
2018-02-21T06:04:53.315Z,-2.30
2018-02-21T06:07:19.657Z,-2.50
2018-02-21T06:09:45.954Z,-2.50
2018-02-21T06:12:12.214Z,-2.50
2018-02-21T06:14:38.494Z,-2.40
2018-02-21T06:17:04.744Z,-2.40
2018-02-21T06:19:30.981Z,-2.50
2018-02-21T06:21:57.216Z,-2.50
2018-02-21T06:24:23.543Z,-2.60
2018-02-21T06:26:50.565Z,-2.90
2018-02-21T06:29:16.792Z,-2.90
2018-02-21T06:31:44.895Z,-2.70
2018-02-21T06:34:12.205Z,-2.80
2018-02-21T06:36:40.460Z,-2.70
2018-02-21T06:39:06.749Z,-2.30
2018-02-21T06:41:33.026Z,-2.40
2018-02-21T06:43:59.294Z,-2.50
2018-02-21T06:46:25.594Z,-2.10
2018-02-21T06:48:52.602Z,-2.40
2018-02-21T06:51:18.882Z,-2.40
2018-02-21T06:53:45.899Z,-2.50
2018-02-21T06:56:12.201Z,-2.60
2018-02-21T06:58:39.168Z,-2.30
2018-02-21T07:01:05.411Z,-2.30
2018-02-21T07:03:31.699Z,-2.60
2018-02-21T07:06:00.099Z,-2.60
2018-02-21T07:08:26.401Z,-2.70
2018-02-21T07:10:52.701Z,-2.60
2018-02-21T07:13:18.970Z,-2.60
2018-02-21T07:15:45.333Z,-2.30
2018-02-21T07:18:11.610Z,-2.30
2018-02-21T07:20:37.995Z,-2.40
2018-02-21T07:23:04.324Z,-2.30
2018-02-21T07:25:37.324Z,-1.90
2018-02-21T07:28:03.578Z,-1.90
2018-02-21T07:30:30.609Z,-2.20
2018-02-21T07:32:56.912Z,-2.30
2018-02-21T07:35:23.188Z,-2.50
2018-02-21T07:37:49.737Z,-2.50
2018-02-21T07:40:16.010Z,-2.70
2018-02-21T07:42:42.261Z,-2.40
2018-02-21T07:45:09.269Z,-2.20
2018-02-21T07:47:35.579Z,-2.20
2018-02-21T07:50:01.883Z,-1.80
2018-02-21T07:52:28.898Z,-2.00
2018-02-21T07:54:55.184Z,-2.10
2018-02-21T07:57:28.490Z,-2.00
2018-02-21T07:59:54.708Z,-1.80
2018-02-21T08:02:21.103Z,-1.80
2018-02-21T08:04:47.405Z,-1.60
2018-02-21T08:07:13.698Z,-1.70
2018-02-21T08:09:39.938Z,-1.90
2018-02-21T08:12:06.221Z,-1.80
2018-02-21T08:14:32.636Z,-1.80
2018-02-21T08:16:58.902Z,-1.70
2018-02-21T08:19:25.193Z,-1.90
2018-02-21T08:21:54.323Z,-1.90
2018-02-21T08:24:20.655Z,-1.90
2018-02-21T08:26:46.908Z,-2.00
2018-02-21T08:29:13.214Z,-1.90
2018-02-21T08:31:40.229Z,-1.70
2018-02-21T08:34:06.525Z,-1.70
2018-02-21T08:36:32.785Z,-1.70
2018-02-21T08:38:59.093Z,-1.70
2018-02-21T08:41:25.386Z,-1.80
2018-02-21T08:43:51.654Z,-1.70
2018-02-21T08:46:18.670Z,-1.40
2018-02-21T08:48:44.922Z,-1.50
2018-02-21T08:51:11.233Z,-1.40
2018-02-21T08:53:38.246Z,-1.60
2018-02-21T08:56:04.473Z,-1.70
2018-02-21T08:58:30.767Z,-1.60
2018-02-21T09:00:57.746Z,-1.50
2018-02-21T09:03:24.061Z,-1.50
2018-02-21T09:05:51.078Z,-1.60
2018-02-21T09:08:17.354Z,-1.70
2018-02-21T09:10:43.613Z,-1.70
2018-02-21T09:13:10.687Z,-1.60
2018-02-21T09:15:37.001Z,-1.60
2018-02-21T09:18:03.351Z,-1.70
2018-02-21T09:20:29.637Z,-1.30
2018-02-21T09:22:55.919Z,-1.40
2018-02-21T09:25:22.230Z,-1.50
2018-02-21T09:27:48.584Z,-1.60
2018-02-21T09:30:14.932Z,-1.60
2018-02-21T09:32:41.233Z,-1.70
2018-02-21T09:35:07.531Z,-1.40
2018-02-21T09:37:33.810Z,-1.50
2018-02-21T09:40:00.851Z,-1.30
2018-02-21T09:42:27.181Z,-1.30
2018-02-21T09:44:53.655Z,-1.20
2018-02-21T09:47:19.982Z,-1.20
2018-02-21T09:49:47.373Z,-0.70
2018-02-21T09:52:14.461Z,-0.40
2018-02-21T09:54:40.785Z,-0.40
2018-02-21T09:57:07.037Z,-0.40
2018-02-21T09:59:33.325Z,-0.50
2018-02-21T10:01:59.624Z,-0.50
2018-02-21T10:04:26.017Z,-0.60
2018-02-21T10:06:53.170Z,-0.50
2018-02-21T10:09:19.646Z,-0.50
2018-02-21T10:11:46.700Z,-0.20
2018-02-21T10:14:13.814Z,-0.10
2018-02-21T10:16:40.111Z,-0.10
2018-02-21T10:19:07.124Z,0.10
2018-02-21T10:21:33.378Z,0.10
2018-02-21T10:23:59.659Z,0.20
2018-02-21T10:26:25.969Z,0.30
2018-02-21T10:28:53.067Z,0.20
2018-02-21T10:31:20.194Z,0.00
2018-02-21T10:33:48.162Z,0.00
2018-02-21T10:36:14.459Z,-0.10
2018-02-21T10:38:40.762Z,0.00
2018-02-21T10:41:14.254Z,-0.10
2018-02-21T10:43:40.546Z,-0.40
2018-02-21T10:46:06.836Z,-0.30
2018-02-21T10:48:33.136Z,-0.40
2018-02-21T10:51:00.210Z,-0.50
2018-02-21T10:53:26.515Z,-0.50
2018-02-21T10:55:52.779Z,-0.50
2018-02-21T10:58:19.872Z,-0.30
2018-02-21T11:00:52.307Z,-0.30
2018-02-21T11:03:18.609Z,-0.30
2018-02-21T11:05:44.862Z,-0.10
2018-02-21T11:08:11.177Z,-0.40
2018-02-21T11:10:37.477Z,-0.30
2018-02-21T11:13:04.779Z,-0.20
2018-02-21T11:15:31.039Z,-0.10
2018-02-21T11:17:57.387Z,-0.20
2018-02-21T11:20:23.705Z,-0.20
2018-02-21T11:22:50.003Z,-0.20
2018-02-21T11:25:16.261Z,0.00
2018-02-21T11:27:43.269Z,-0.10
2018-02-21T11:30:09.594Z,-0.10
2018-02-21T11:32:36.015Z,0.00
2018-02-21T11:35:02.319Z,0.20
2018-02-21T11:37:28.610Z,0.20
2018-02-21T11:39:55.088Z,0.20
2018-02-21T11:42:21.351Z,0.10
2018-02-21T11:44:47.618Z,0.30
2018-02-21T11:47:14.685Z,0.50
2018-02-21T11:49:46.074Z,0.40
2018-02-21T11:52:12.399Z,0.50
2018-02-21T11:54:39.530Z,0.90
2018-02-21T11:57:05.800Z,0.90
2018-02-21T11:59:32.186Z,1.50
2018-02-21T12:02:01.950Z,1.50
2018-02-21T12:04:28.216Z,1.30
2018-02-21T12:06:54.480Z,1.20
2018-02-21T12:09:20.791Z,1.10
2018-02-21T12:11:48.802Z,0.80
2018-02-21T12:14:15.036Z,0.80
2018-02-21T12:16:41.298Z,0.90
2018-02-21T12:19:07.664Z,0.90
2018-02-21T12:21:34.019Z,0.80
2018-02-21T12:24:00.276Z,0.90
2018-02-21T12:26:26.574Z,1.00
2018-02-21T12:28:52.829Z,1.20
2018-02-21T12:31:20.332Z,1.80
2018-02-21T12:33:51.254Z,1.70
2018-02-21T12:36:18.322Z,2.00
2018-02-21T12:41:44.503Z,2.30
2018-02-21T12:44:10.836Z,2.30
2018-02-21T12:46:37.081Z,2.30
2018-02-21T12:49:03.245Z,2.70
2018-02-21T12:51:29.410Z,2.80
2018-02-21T12:53:55.563Z,2.70
2018-02-21T12:56:21.733Z,2.70
2018-02-21T12:58:47.925Z,2.60
2018-02-21T13:01:14.139Z,2.40
2018-02-21T13:03:41.300Z,2.30
2018-02-21T13:06:07.517Z,2.30
2018-02-21T13:08:33.788Z,2.30
2018-02-21T13:11:00.721Z,2.40
2018-02-21T13:13:26.937Z,2.40
2018-02-21T13:15:53.149Z,2.50
2018-02-21T13:18:20.091Z,2.90
2018-02-21T13:20:46.277Z,2.90
2018-02-21T13:23:13.545Z,3.10
2018-02-21T13:25:40.029Z,3.00
2018-02-21T13:28:06.216Z,2.90
2018-02-21T13:30:32.359Z,2.80
2018-02-21T13:32:58.631Z,2.80
2018-02-21T13:35:28.955Z,2.80
2018-02-21T13:37:55.300Z,2.70
2018-02-21T13:40:21.509Z,2.70
2018-02-21T13:42:47.652Z,2.80
2018-02-21T13:45:19.409Z,3.00
2018-02-21T13:47:45.625Z,3.20
2018-02-21T13:50:11.821Z,3.00
2018-02-21T13:52:37.973Z,2.70
2018-02-21T13:55:04.151Z,2.50
2018-02-21T13:57:31.101Z,2.80
2018-02-21T13:59:57.233Z,2.70
2018-02-21T14:02:23.450Z,3.00
2018-02-21T14:04:51.811Z,3.20
2018-02-21T14:07:17.975Z,3.10
2018-02-21T14:09:44.117Z,2.80
2018-02-21T14:12:10.312Z,2.70
2018-02-21T14:14:37.197Z,2.50
2018-02-21T14:17:03.339Z,2.50
2018-02-21T14:19:34.027Z,2.50
2018-02-21T14:22:00.183Z,2.60
2018-02-21T14:24:27.100Z,2.40
2018-02-21T14:26:53.543Z,2.30
2018-02-21T14:29:19.724Z,2.00
2018-02-21T14:31:46.626Z,2.20
2018-02-21T14:34:12.759Z,2.20
2018-02-21T14:36:38.927Z,2.30
2018-02-21T14:39:05.083Z,2.50
2018-02-21T14:41:31.270Z,2.60
2018-02-21T14:43:57.449Z,2.80
2018-02-21T14:46:27.420Z,2.80
2018-02-21T14:48:54.861Z,2.60
2018-02-21T14:51:21.819Z,2.50
2018-02-21T14:53:48.725Z,2.40
2018-02-21T14:56:14.894Z,2.30
2018-02-21T14:58:41.044Z,2.30
2018-02-21T15:01:07.216Z,2.30
2018-02-21T15:03:34.102Z,2.30
2018-02-21T15:06:00.238Z,2.30
2018-02-21T15:08:26.482Z,2.30
2018-02-21T15:10:52.654Z,2.50
2018-02-21T15:13:18.788Z,2.70
2018-02-21T15:15:44.956Z,2.90
2018-02-21T15:18:11.849Z,2.80
2018-02-21T15:20:38.030Z,2.70
2018-02-21T15:23:04.179Z,2.90
2018-02-21T15:25:31.136Z,3.10
2018-02-21T15:27:57.318Z,3.10
2018-02-21T15:30:23.564Z,3.10
2018-02-21T15:32:49.777Z,2.90
2018-02-21T15:35:15.962Z,2.60
2018-02-21T15:37:42.914Z,2.30
2018-02-21T15:40:09.089Z,2.30
2018-02-21T15:42:35.277Z,1.90
2018-02-21T15:45:01.421Z,2.00
2018-02-21T15:47:27.590Z,2.00
2018-02-21T15:49:53.783Z,1.90
2018-02-21T15:52:20.749Z,1.90
2018-02-21T15:54:46.941Z,1.90
2018-02-21T15:57:13.101Z,1.90
2018-02-21T15:59:40.035Z,1.90
2018-02-21T16:02:06.198Z,1.90
2018-02-21T16:04:33.127Z,1.70
2018-02-21T16:06:59.346Z,1.60
2018-02-21T16:09:25.575Z,1.60
2018-02-21T16:11:51.807Z,1.60
2018-02-21T16:14:20.047Z,1.50
2018-02-21T16:16:46.202Z,1.40
2018-02-21T16:19:12.409Z,1.60
2018-02-21T16:21:40.230Z,1.30
2018-02-21T16:24:06.459Z,1.40
2018-02-21T16:26:33.454Z,1.30
2018-02-21T16:28:59.605Z,1.30
2018-02-21T16:31:25.800Z,1.30
2018-02-21T16:33:52.055Z,1.30
2018-02-21T16:36:18.293Z,1.20
2018-02-21T16:38:44.487Z,1.10
2018-02-21T16:41:10.665Z,1.10
2018-02-21T16:43:37.585Z,1.30
2018-02-21T16:46:03.766Z,1.30
2018-02-21T16:48:30.675Z,1.70
2018-02-21T16:50:57.008Z,1.60
2018-02-21T16:53:23.309Z,1.70
2018-02-21T16:55:50.250Z,1.60
2018-02-21T16:58:17.241Z,1.60
2018-02-21T17:00:43.382Z,1.60
2018-02-21T17:03:09.573Z,1.50
2018-02-21T17:05:35.731Z,1.40
2018-02-21T17:08:01.892Z,1.50
2018-02-21T17:10:28.123Z,1.60
2018-02-21T17:12:55.072Z,1.60
2018-02-21T17:15:22.145Z,1.60
2018-02-21T17:17:48.328Z,1.60
2018-02-21T17:20:14.521Z,1.50
2018-02-21T17:22:41.449Z,1.40
2018-02-21T17:25:10.917Z,1.40
2018-02-21T17:27:37.117Z,1.30
2018-02-21T17:30:03.302Z,1.70
2018-02-21T17:32:34.463Z,1.60
2018-02-21T17:35:00.617Z,1.60
2018-02-21T17:37:26.905Z,1.70
2018-02-21T17:39:57.265Z,1.50
2018-02-21T17:42:23.456Z,1.50
2018-02-21T17:44:49.685Z,1.60
2018-02-21T17:47:15.887Z,1.40
2018-02-21T17:49:42.069Z,1.40
2018-02-21T17:52:08.267Z,1.40
2018-02-21T17:54:34.473Z,1.60
2018-02-21T17:57:21.615Z,1.70
2018-02-21T17:59:47.818Z,1.70
2018-02-21T18:02:14.003Z,1.70
2018-02-21T18:04:40.966Z,1.80
2018-02-21T18:07:07.900Z,1.60
2018-02-21T18:09:34.091Z,1.60
2018-02-21T18:12:00.241Z,1.70
2018-02-21T18:14:28.020Z,1.70
2018-02-21T18:16:54.236Z,1.70
2018-02-21T18:19:22.551Z,1.50
2018-02-21T18:21:48.766Z,1.40
2018-02-21T18:24:15.017Z,1.20
2018-02-21T18:26:48.162Z,1.20
2018-02-21T18:29:14.318Z,0.90
2018-02-21T18:31:41.227Z,0.80
2018-02-21T18:34:07.490Z,0.80
2018-02-21T18:36:33.682Z,0.80
2018-02-21T18:38:59.861Z,0.50
2018-02-21T18:41:27.135Z,0.60
2018-02-21T18:43:53.423Z,0.60
2018-02-21T18:46:19.639Z,0.60
2018-02-21T18:48:46.666Z,0.90
2018-02-21T18:51:12.891Z,0.90
2018-02-21T18:53:39.033Z,0.80
2018-02-21T18:56:05.265Z,0.60
2018-02-21T18:58:31.399Z,0.50
2018-02-21T19:00:57.564Z,0.30
2018-02-21T19:03:23.740Z,0.10
2018-02-21T19:05:50.868Z,0.00
2018-02-21T19:08:17.040Z,0.40
2018-02-21T19:10:43.222Z,0.20
2018-02-21T19:13:09.403Z,0.30
2018-02-21T19:15:35.585Z,0.20
2018-02-21T19:18:01.858Z,0.20
2018-02-21T19:20:28.033Z,0.30
2018-02-21T19:22:56.326Z,0.10
2018-02-21T19:25:22.516Z,0.00
2018-02-21T19:27:48.707Z,0.00
2018-02-21T19:30:14.853Z,0.20
2018-02-21T19:32:41.059Z,0.30
2018-02-21T19:35:07.227Z,0.10
2018-02-21T19:37:33.387Z,-0.20
2018-02-21T19:40:00.301Z,-0.30
2018-02-21T19:42:52.064Z,-0.30
2018-02-21T19:45:18.272Z,-0.20
2018-02-21T19:47:44.430Z,-0.10
2018-02-21T19:50:10.724Z,-0.20
2018-02-21T19:52:36.917Z,-0.20
2018-02-21T19:55:03.124Z,-0.20
2018-02-21T19:57:29.354Z,-0.50
2018-02-21T19:59:55.668Z,-0.70
2018-02-21T20:02:22.621Z,-1.10
2018-02-21T20:04:49.572Z,-1.20
2018-02-21T20:07:16.465Z,-1.20
2018-02-21T20:09:42.655Z,-1.20
2018-02-21T20:12:08.838Z,-1.10
2018-02-21T20:14:35.013Z,-0.90
2018-02-21T20:17:01.166Z,-0.80
2018-02-21T20:19:27.743Z,-0.80
2018-02-21T20:21:54.653Z,-1.10
2018-02-21T20:24:20.867Z,-1.10
2018-02-21T20:26:47.009Z,-1.20
2018-02-21T20:29:13.134Z,-1.20
2018-02-21T20:31:39.303Z,-1.10
2018-02-21T20:34:05.519Z,-1.10
2018-02-21T20:36:31.683Z,-1.10
2018-02-21T20:38:57.875Z,-1.20
2018-02-21T20:41:24.804Z,-1.00
2018-02-21T20:43:51.003Z,-1.00
2018-02-21T20:46:19.255Z,-1.00
2018-02-21T20:48:46.168Z,-1.10
2018-02-21T20:51:13.433Z,-1.10
2018-02-21T20:53:39.659Z,-1.00
2018-02-21T20:56:05.837Z,-1.00
2018-02-21T20:58:32.005Z,-1.10
2018-02-21T21:00:58.921Z,-1.20
2018-02-21T21:03:25.848Z,-1.30
2018-02-21T21:05:53.144Z,-1.30
2018-02-21T21:08:19.338Z,-1.30
2018-02-21T21:10:48.992Z,-1.40
2018-02-21T21:13:16.304Z,-1.50
2018-02-21T21:15:43.290Z,-1.90
2018-02-21T21:18:11.273Z,-2.00
2018-02-21T21:20:51.631Z,-2.00
2018-02-21T21:23:17.893Z,-2.10
2018-02-21T21:25:44.181Z,-2.10
2018-02-21T21:28:10.414Z,-2.20
2018-02-21T21:30:37.388Z,-2.40
2018-02-21T21:33:03.698Z,-2.40
2018-02-21T21:35:29.918Z,-2.50
2018-02-21T21:37:56.285Z,-2.50
2018-02-21T21:40:22.545Z,-2.60
2018-02-21T21:42:49.924Z,-2.60
2018-02-21T21:45:16.981Z,-2.60
2018-02-21T21:47:43.254Z,-2.60
2018-02-21T21:50:09.534Z,-2.60
2018-02-21T21:52:39.834Z,-2.70
2018-02-21T21:55:10.329Z,-2.50
2018-02-21T21:57:36.582Z,-2.40
2018-02-21T22:00:02.896Z,-2.50
2018-02-21T22:02:34.462Z,-2.60
2018-02-21T22:05:00.731Z,-2.70
2018-02-21T22:07:27.000Z,-2.70
2018-02-21T22:09:54.049Z,-2.90
2018-02-21T22:12:20.482Z,-3.00
2018-02-21T22:14:50.868Z,-3.00
2018-02-21T22:17:17.135Z,-3.00
2018-02-21T22:19:43.358Z,-3.10
2018-02-21T22:22:09.611Z,-3.10
2018-02-21T22:24:35.927Z,-3.10
2018-02-21T22:27:02.172Z,-3.20
2018-02-21T22:29:28.486Z,-3.20
2018-02-21T22:31:55.508Z,-3.30
2018-02-21T22:34:21.753Z,-3.30
2018-02-21T22:36:48.685Z,-3.40
2018-02-21T22:39:15.027Z,-3.40
2018-02-21T22:41:41.276Z,-3.50
2018-02-21T22:44:08.360Z,-3.50
2018-02-21T22:46:34.650Z,-3.50
2018-02-21T22:49:00.942Z,-3.50
2018-02-21T22:51:28.326Z,-3.50
2018-02-21T22:53:54.666Z,-3.50
2018-02-21T22:56:20.983Z,-3.50
2018-02-21T22:58:47.261Z,-3.50
2018-02-21T23:01:14.262Z,-3.60
2018-02-21T23:03:40.570Z,-3.60
2018-02-21T23:06:07.555Z,-3.70
2018-02-21T23:08:33.823Z,-3.80
2018-02-21T23:11:00.073Z,-3.80
2018-02-21T23:13:26.381Z,-3.90
2018-02-21T23:15:52.729Z,-3.90
2018-02-21T23:18:20.759Z,-4.00
2018-02-21T23:20:46.994Z,-4.00
2018-02-21T23:23:13.321Z,-4.00
2018-02-21T23:25:46.355Z,-4.00
2018-02-21T23:28:13.525Z,-4.00
2018-02-21T23:30:39.749Z,-4.10
2018-02-21T23:33:07.083Z,-4.10
2018-02-21T23:35:33.350Z,-4.10
2018-02-21T23:38:01.657Z,-4.10
2018-02-21T23:40:27.997Z,-4.10
2018-02-21T23:42:54.992Z,-4.20
2018-02-21T23:45:21.413Z,-4.20
2018-02-21T23:47:48.394Z,-4.30
2018-02-21T23:50:14.785Z,-4.30
2018-02-21T23:52:41.179Z,-4.30
2018-02-21T23:55:07.386Z,-4.30
2018-02-21T23:57:34.430Z,-4.30
